sim
Sign-in with your pilot id or email,
or register
Callsign
Passwort

Schedule Details

Flight Number: DLH1990 (1)
Departure: Munich Airport (EDDM) at 14:45
Arrival: Cologne Bonn Airport (EDDK) at 15:50
Route: Lufthansa Passenger Schedule. Enter filed route here before submitting Pirep.

Weather Information
Getting current METAR information for EDDM 190620Z 05005KT CAVOK 08/05 Q1020 NOSIG
Getting current METAR information for EDDK 190620Z 13003KT 070V170 CAVOK 12/06 Q1019 NOSIG

Schedule Frequency

Route Map